Time;durP1;ratioP1;P1;durP2;ratioP2;P2;SDS_P1;SDS_P2;PMS_P1;PMS_P2;Temp;Humidity;BMP_temperature;BMP_pressure;BME280_temperature;BME280_humidity;BME280_pressure;Samples;Min_cycle;Max_cycle;Signal;HPM_P1;HPM_P2
2022/04/20 00:01:46;;;;;;;28.60;17.40;;;;;;;4.13;62.23;94658.84;5003043;28;20468;-79
2022/04/20 00:04:11;;;;;;;28.98;18.20;;;;;;;4.14;62.13;94650.16;5043338;23;20126;-78
2022/04/20 00:09:05;;;;;;;25.92;16.70;;;;;;;4.02;63.04;94656.84;5050537;23;20053;-79
2022/04/20 00:14:00;;;;;;;26.17;15.55;;;;;;;4.11;62.62;94649.75;5133780;23;20065;-78
2022/04/20 00:16:26;;;;;;;35.90;18.90;;;;;;;4.00;62.66;94648.53;5024600;28;20045;-79
2022/04/20 00:18:51;;;;;;;37.45;19.17;;;;;;;4.02;62.40;94656.06;5006708;28;20026;-79
2022/04/20 00:21:17;;;;;;;38.25;18.05;;;;;;;3.97;62.63;94663.56;5017796;28;20091;-81
2022/04/20 00:23:42;;;;;;;37.90;17.35;;;;;;;3.97;63.02;94658.44;5016763;28;20030;-81
2022/04/20 00:26:07;;;;;;;37.92;17.80;;;;;;;3.98;62.65;94660.81;4997254;28;20285;-81
2022/04/20 00:28:33;;;;;;;36.22;18.15;;;;;;;3.96;62.95;94657.63;5016648;28;20029;-80
2022/04/20 00:30:58;;;;;;;31.92;16.30;;;;;;;3.96;62.41;94656.84;5017022;28;20026;-80
2022/04/20 00:33:24;;;;;;;30.08;14.68;;;;;;;3.97;63.60;94648.94;5015795;28;20034;-80
2022/04/20 00:35:50;;;;;;;20.98;12.75;;;;;;;3.99;64.67;94646.16;5017780;28;20030;-80
2022/04/20 00:38:17;;;;;;;26.05;13.85;;;;;;;4.01;63.24;94644.19;4998042;28;20026;-81
2022/04/20 00:40:49;;;;;;;29.23;13.63;;;;;;;4.01;62.75;94650.13;5002932;23;20038;-80
2022/04/20 00:43:15;;;;;;;27.02;14.10;;;;;;;3.97;62.27;94648.13;5009488;28;20062;-80
2022/04/20 00:45:42;;;;;;;25.55;14.35;;;;;;;3.94;62.73;94648.53;4992832;28;20038;-79
2022/04/20 00:48:09;;;;;;;22.60;12.73;;;;;;;3.87;63.08;94656.22;4982709;28;20038;-79
2022/04/20 00:50:35;;;;;;;23.92;12.32;;;;;;;3.85;62.56;94650.47;4985027;28;20057;-79
2022/04/20 00:53:00;;;;;;;22.15;11.63;;;;;;;3.82;62.37;94643.16;4986357;28;20030;-78
2022/04/20 00:55:26;;;;;;;23.27;12.65;;;;;;;3.74;62.66;94651.03;5025488;23;20410;-79
2022/04/20 00:57:51;;;;;;;19.98;12.32;;;;;;;3.71;62.99;94646.28;4994474;28;20529;-78
2022/04/20 01:00:17;;;;;;;15.07;10.77;;;;;;;3.70;63.21;94645.50;5022707;28;20414;-79
2022/04/20 01:02:42;;;;;;;23.02;12.25;;;;;;;3.66;63.46;94648.66;4982612;28;20119;-79
2022/04/20 01:05:08;;;;;;;19.83;12.63;;;;;;;3.66;63.57;94651.22;4996435;28;20038;-79
2022/04/20 01:07:37;;;;;;;27.95;13.95;;;;;;;3.62;63.20;94650.81;4982666;28;20093;-79
2022/04/20 01:10:03;;;;;;;20.92;12.65;;;;;;;3.55;63.51;94649.97;5000201;28;20088;-79
2022/04/20 01:12:29;;;;;;;17.35;11.85;;;;;;;3.59;62.64;94652.00;5000507;28;20049;-79
2022/04/20 01:14:54;;;;;;;15.35;10.90;;;;;;;3.62;62.70;94645.66;5001465;28;20030;-79
2022/04/20 01:17:23;;;;;;;15.90;10.00;;;;;;;3.64;62.53;94648.06;5001123;28;20026;-79
2022/04/20 01:19:48;;;;;;;17.25;12.32;;;;;;;3.46;63.54;94640.88;4999354;28;20026;-79
2022/04/20 01:22:14;;;;;;;14.57;10.70;;;;;;;3.44;63.97;94643.63;4996272;28;20399;-79
2022/04/20 01:24:39;;;;;;;18.45;12.43;;;;;;;3.35;64.38;94644.75;4993139;28;20031;-78
2022/04/20 01:27:05;;;;;;;19.85;10.77;;;;;;;3.31;64.40;94654.63;5191478;22;20051;-78
2022/04/20 01:29:31;;;;;;;17.13;11.07;;;;;;;3.34;64.19;94653.47;5013872;28;20068;-79
2022/04/20 01:31:56;;;;;;;18.83;11.38;;;;;;;3.38;64.35;94654.66;5012391;28;20405;-79
2022/04/20 01:34:22;;;;;;;14.52;11.40;;;;;;;3.35;64.51;94655.03;5027162;23;20631;-79
2022/04/20 01:36:47;;;;;;;21.70;11.45;;;;;;;3.39;64.55;94652.88;5015356;28;20561;-79
2022/04/20 01:39:13;;;;;;;20.58;11.88;;;;;;;3.41;64.46;94649.13;5015978;28;20108;-80
2022/04/20 01:41:38;;;;;;;26.08;11.27;;;;;;;3.43;64.28;94652.31;5006933;28;20436;-80
2022/04/20 01:44:04;;;;;;;20.25;11.82;;;;;;;3.43;64.52;94652.31;5009005;28;20429;-79
2022/04/20 01:46:29;;;;;;;15.88;12.20;;;;;;;3.38;64.05;94653.88;4997761;28;20490;-79
2022/04/20 01:48:55;;;;;;;20.48;12.18;;;;;;;3.35;64.49;94665.31;4989538;28;20045;-80
2022/04/20 01:54:04;;;;;;;31.85;14.77;;;;;;;3.31;64.50;94654.63;4993326;28;20552;-79
2022/04/20 01:56:30;;;;;;;21.52;13.63;;;;;;;3.33;64.94;94659.59;4988205;28;20041;-79
2022/04/20 01:58:55;;;;;;;27.88;14.88;;;;;;;3.29;64.62;94658.38;5015054;28;20069;-79
2022/04/20 02:04:06;;;;;;;18.45;10.95;;;;;;;3.42;65.33;94660.22;5013780;28;20095;-80
2022/04/20 02:06:31;;;;;;;16.85;11.15;;;;;;;3.38;64.98;94659.81;5002884;28;20089;-79
2022/04/20 02:08:57;;;;;;;20.35;11.93;;;;;;;3.41;64.97;94659.41;5012607;28;20089;-79
2022/04/20 02:11:22;;;;;;;25.23;13.57;;;;;;;3.43;64.18;94660.03;5014465;28;20026;-79
2022/04/20 02:13:48;;;;;;;40.60;24.48;;;;;;;3.44;64.92;94651.34;5014268;28;21662;-79
2022/04/20 02:16:13;;;;;;;29.73;16.45;;;;;;;3.41;65.28;94659.41;5005275;28;20041;-79
2022/04/20 02:18:39;;;;;;;18.67;13.60;;;;;;;3.50;66.39;94655.72;5003923;28;20025;-80
2022/04/20 02:21:07;;;;;;;33.33;19.33;;;;;;;3.55;65.05;94655.91;5051473;23;20113;-79
2022/04/20 02:25:59;;;;;;;31.92;16.60;;;;;;;3.54;64.74;94656.91;5048922;22;20049;-79
2022/04/20 02:28:24;;;;;;;38.13;18.48;;;;;;;3.51;64.80;94647.00;5013593;28;20022;-79
2022/04/20 02:30:49;;;;;;;43.13;22.98;;;;;;;3.54;64.62;94653.53;5012919;28;20100;-78
2022/04/20 02:33:15;;;;;;;23.40;13.60;;;;;;;3.58;66.77;94653.00;5010619;28;20061;-79
2022/04/20 02:35:40;;;;;;;40.95;19.25;;;;;;;3.55;64.65;94655.91;5047476;23;20516;-80
2022/04/20 02:38:09;;;;;;;43.22;21.52;;;;;;;3.59;64.68;94646.84;5003242;28;20515;-79
2022/04/20 02:40:34;;;;;;;20.80;13.05;;;;;;;3.63;66.53;94646.47;4986637;28;20042;-78
2022/04/20 02:43:00;;;;;;;17.45;12.48;;;;;;;3.63;66.26;94641.31;5002100;28;20097;-80
2022/04/20 02:45:25;;;;;;;17.08;13.13;;;;;;;3.67;66.13;94645.88;5002078;28;20512;-80
2022/04/20 02:47:51;;;;;;;52.35;27.67;;;;;;;3.61;65.12;94642.31;4994513;28;20521;-80
2022/04/20 02:50:16;;;;;;;25.50;17.05;;;;;;;3.66;65.71;94646.06;4992902;28;20128;-79
2022/04/20 02:52:42;;;;;;;18.50;12.63;;;;;;;3.61;66.13;94644.88;4988741;28;20039;-80
2022/04/20 02:55:07;;;;;;;19.23;13.77;;;;;;;3.70;66.42;94647.25;5002452;28;20043;-79
2022/04/20 02:57:34;;;;;;;29.00;18.77;;;;;;;3.77;65.48;94653.25;5012212;28;20050;-79
2022/04/20 02:59:59;;;;;;;26.27;18.25;;;;;;;3.82;65.49;94650.88;5006506;28;20460;-79
2022/04/20 03:02:24;;;;;;;18.63;14.40;;;;;;;3.90;64.91;94653.25;4998152;28;20041;-80
2022/04/20 03:04:50;;;;;;;15.18;12.05;;;;;;;3.91;65.17;94644.56;5122486;23;20157;-80
2022/04/20 03:07:15;;;;;;;18.60;12.43;;;;;;;3.94;64.74;94654.47;5017045;28;20037;-80
2022/04/20 03:09:41;;;;;;;19.10;12.25;;;;;;;3.95;64.07;94656.06;5015383;28;20076;-80
2022/04/20 03:12:07;;;;;;;22.17;13.35;;;;;;;3.94;64.86;94654.47;5286940;23;20047;-80
2022/04/20 03:14:32;;;;;;;26.02;13.40;;;;;;;3.98;64.03;94657.44;5100463;23;20050;-79
2022/04/20 03:16:58;;;;;;;36.30;13.80;;;;;;;4.00;63.89;94655.47;5017178;28;20052;-79
2022/04/20 03:19:24;;;;;;;18.40;12.27;;;;;;;3.76;64.61;94656.81;5019408;28;20029;-78
2022/04/20 03:21:49;;;;;;;22.67;14.13;;;;;;;3.81;64.82;94664.72;5018192;28;20038;-79
2022/04/20 03:24:15;;;;;;;21.92;13.85;;;;;;;3.82;64.17;94666.31;5026320;28;20026;-78
2022/04/20 03:26:40;;;;;;;26.58;14.02;;;;;;;3.82;64.61;94656.00;5032808;28;20034;-78
2022/04/20 03:29:06;;;;;;;29.42;14.55;;;;;;;3.97;64.68;94656.66;5034265;28;20044;-79
2022/04/20 03:31:32;;;;;;;16.35;12.85;;;;;;;4.01;64.19;94639.84;5017126;28;20096;-77
2022/04/20 03:33:57;;;;;;;26.80;16.20;;;;;;;4.08;63.80;94645.78;4994893;28;20041;-76
2022/04/20 03:36:23;;;;;;;23.48;16.48;;;;;;;4.09;64.12;94647.38;5012327;28;20580;-76
2022/04/20 03:38:48;;;;;;;29.40;15.73;;;;;;;4.16;63.59;94643.03;5012274;28;20077;-77
2022/04/20 03:41:13;;;;;;;24.65;15.32;;;;;;;4.13;63.85;94633.13;5010936;28;20033;-77
2022/04/20 03:43:39;;;;;;;24.25;15.40;;;;;;;4.18;63.63;94628.19;5012848;28;20080;-78
2022/04/20 03:46:05;;;;;;;24.42;16.27;;;;;;;4.20;63.37;94639.06;5013216;28;20030;-77
2022/04/20 03:48:30;;;;;;;23.98;16.65;;;;;;;4.30;63.39;94648.97;5013635;28;20033;-77
2022/04/20 03:50:56;;;;;;;29.60;15.82;;;;;;;4.26;63.33;94641.88;4995516;28;20038;-77
2022/04/20 03:53:21;;;;;;;29.65;14.65;;;;;;;4.26;63.82;94642.66;4995601;28;20034;-78
2022/04/20 03:55:47;;;;;;;25.17;16.52;;;;;;;4.35;62.79;94638.88;5014308;28;20468;-78
2022/04/20 03:58:12;;;;;;;51.70;29.60;;;;;;;4.35;62.74;94640.66;4995266;28;20564;-77
2022/04/20 04:00:37;;;;;;;73.50;48.13;;;;;;;4.37;63.13;94634.31;5012977;28;20046;-77
2022/04/20 04:03:03;;;;;;;49.67;30.95;;;;;;;4.45;62.94;94639.28;5010575;28;20037;-77
2022/04/20 04:05:29;;;;;;;84.30;43.05;;;;;;;4.52;62.06;94640.06;5010654;28;20524;-78
2022/04/20 04:07:54;;;;;;;76.78;47.40;;;;;;;4.63;62.63;94648.19;5012261;28;20523;-77
2022/04/20 04:10:19;;;;;;;56.10;38.03;;;;;;;4.72;61.97;94637.50;5011312;28;20029;-77
2022/04/20 04:12:45;;;;;;;44.85;27.63;;;;;;;4.74;61.78;94630.38;5010354;28;20092;-77
2022/04/20 04:15:11;;;;;;;51.47;29.70;;;;;;;4.80;61.90;94626.97;5011611;28;20061;-77
2022/04/20 04:17:36;;;;;;;36.55;19.95;;;;;;;4.82;60.90;94622.41;4994019;28;20034;-77
2022/04/20 04:20:02;;;;;;;32.10;20.85;;;;;;;4.94;61.30;94625.19;5010422;28;20481;-77
2022/04/20 04:22:28;;;;;;;24.42;14.77;;;;;;;5.05;60.56;94621.22;4993891;28;20034;-77
2022/04/20 04:24:53;;;;;;;22.15;15.18;;;;;;;5.07;60.00;94619.22;5011965;28;20588;-81
2022/04/20 04:27:20;;;;;;;28.15;14.43;;;;;;;5.08;60.49;94620.81;5010995;28;20038;-76
2022/04/20 04:29:46;;;;;;;21.33;13.15;;;;;;;5.02;60.56;94617.22;5011419;28;20037;-75
2022/04/20 04:32:12;;;;;;;27.20;14.90;;;;;;;5.05;60.69;94614.28;5011305;28;20034;-76
2022/04/20 04:34:39;;;;;;;21.58;14.02;;;;;;;5.10;60.78;94618.81;5010087;28;20124;-76
2022/04/20 04:37:04;;;;;;;36.83;17.02;;;;;;;5.21;60.32;94605.31;4992706;28;20522;-76
2022/04/20 04:39:30;;;;;;;34.03;14.80;;;;;;;5.29;60.83;94610.22;4993196;28;20129;-74
2022/04/20 04:42:02;;;;;;;50.58;20.80;;;;;;;5.22;61.14;94617.19;5012116;28;20034;-78
2022/04/20 04:44:28;;;;;;;63.80;29.83;;;;;;;5.17;61.75;94629.88;4995704;28;20116;-78
2022/04/20 04:49:38;;;;;;;38.83;18.02;;;;;;;5.26;60.51;94628.69;4997689;28;20536;-77
2022/04/20 04:52:06;;;;;;;36.55;19.25;;;;;;;5.31;60.30;94628.06;5011806;28;20117;-78
2022/04/20 04:54:33;;;;;;;26.38;16.88;;;;;;;5.26;60.28;94635.63;5012725;28;20054;-78
2022/04/20 04:56:59;;;;;;;30.00;14.77;;;;;;;5.26;60.62;94636.41;4995359;28;20413;-78
2022/04/20 04:59:24;;;;;;;26.83;14.70;;;;;;;5.39;58.60;94623.47;5011411;28;20025;-78
2022/04/20 05:01:52;;;;;;;28.75;16.17;;;;;;;5.42;59.82;94633.38;5011448;28;20065;-79
2022/04/20 05:04:19;;;;;;;30.17;14.55;;;;;;;5.45;59.73;94636.56;5011677;28;20057;-78
2022/04/20 05:06:44;;;;;;;25.58;14.05;;;;;;;5.48;60.12;94641.28;5013298;28;20042;-78
2022/04/20 05:09:10;;;;;;;23.38;13.82;;;;;;;5.47;59.68;94645.66;4994708;28;20057;-78
2022/04/20 05:11:35;;;;;;;24.63;14.13;;;;;;;5.58;60.00;94646.81;4993879;28;20489;-79
2022/04/20 05:14:01;;;;;;;26.60;12.93;;;;;;;5.67;59.45;94650.72;5011919;28;20030;-78
2022/04/20 05:16:26;;;;;;;27.45;13.98;;;;;;;5.73;58.74;94655.09;5014518;28;20102;-78
2022/04/20 05:18:52;;;;;;;39.03;14.85;;;;;;;5.72;59.14;94663.84;5011616;28;20034;-78
2022/04/20 05:21:18;;;;;;;19.83;13.23;;;;;;;5.73;59.30;94671.38;5012687;28;20042;-78
2022/04/20 05:23:43;;;;;;;22.77;14.43;;;;;;;5.65;59.48;94663.84;4994565;28;20045;-78
2022/04/20 05:26:09;;;;;;;30.00;14.40;;;;;;;5.67;59.49;94677.31;5011015;28;20978;-78
2022/04/20 05:28:34;;;;;;;25.90;15.75;;;;;;;5.76;59.53;94664.22;5011289;28;20029;-78
2022/04/20 05:31:00;;;;;;;31.67;15.57;;;;;;;5.68;60.37;94673.75;4994197;28;20607;-78
2022/04/20 05:33:25;;;;;;;31.13;15.73;;;;;;;5.74;60.17;94677.31;5012484;28;20033;-80
2022/04/20 05:35:51;;;;;;;38.38;14.27;;;;;;;5.74;60.10;94682.47;4995014;28;20061;-78
2022/04/20 05:43:45;;;;;;;32.38;19.13;;;;;;;5.89;59.77;94674.47;4996377;28;20413;-78
2022/04/20 05:46:13;;;;;;;47.50;20.63;;;;;;;5.87;59.27;94677.25;5011462;28;20030;-78
2022/04/20 05:48:39;;;;;;;36.53;18.25;;;;;;;5.81;58.50;94660.00;5010521;28;20037;-79
2022/04/20 05:51:04;;;;;;;23.98;16.38;;;;;;;5.70;60.10;94682.09;4994446;28;20030;-78
2022/04/20 05:53:30;;;;;;;36.65;21.80;;;;;;;5.68;60.95;94683.28;5011578;28;20034;-78
2022/04/20 05:55:55;;;;;;;34.13;18.38;;;;;;;5.63;60.02;94681.31;5013559;28;20029;-78
2022/04/20 05:58:20;;;;;;;39.95;19.48;;;;;;;5.62;60.86;94686.69;5011655;28;20034;-78
2022/04/20 06:00:46;;;;;;;27.90;18.95;;;;;;;5.62;61.50;94690.03;5011379;28;20030;-78
2022/04/20 06:03:11;;;;;;;54.80;19.75;;;;;;;5.71;60.93;94688.03;4996102;28;20042;-78
2022/04/20 06:05:37;;;;;;;39.20;28.27;;;;;;;5.79;61.36;94692.97;5011995;28;20034;-77
2022/04/20 06:08:02;;;;;;;25.27;16.92;;;;;;;5.80;60.42;94691.16;5009658;28;20048;-77
2022/04/20 06:10:29;;;;;;;21.80;15.25;;;;;;;5.72;60.41;94690.41;5009506;28;20113;-77
2022/04/20 06:12:55;;;;;;;32.63;21.38;;;;;;;5.74;61.62;94687.63;5008574;28;20092;-78
2022/04/20 06:15:21;;;;;;;46.78;25.95;;;;;;;5.67;62.62;94679.09;4991554;28;20041;-78
2022/04/20 06:17:46;;;;;;;34.15;16.88;;;;;;;5.74;61.69;94679.91;4996116;28;20080;-78
2022/04/20 06:20:12;;;;;;;29.70;16.42;;;;;;;5.64;62.75;94679.53;5013599;28;20030;-78
2022/04/20 06:22:37;;;;;;;24.33;16.55;;;;;;;5.63;62.25;94683.88;5012456;28;20034;-78
2022/04/20 06:25:03;;;;;;;23.20;15.85;;;;;;;5.67;62.68;94672.16;5011677;28;20045;-78
2022/04/20 06:27:30;;;;;;;38.40;23.05;;;;;;;5.77;63.38;94670.94;5002375;28;20033;-78
2022/04/20 06:29:55;;;;;;;41.97;27.33;;;;;;;5.78;64.42;94673.31;5012177;28;20029;-78
2022/04/20 06:32:23;;;;;;;49.78;27.70;;;;;;;5.87;63.53;94671.31;5011346;28;20397;-78
2022/04/20 06:34:49;;;;;;;26.33;17.27;;;;;;;5.82;63.25;94673.69;5013124;28;20544;-79
2022/04/20 06:37:14;;;;;;;16.73;13.73;;;;;;;5.87;62.53;94666.16;4996906;28;20033;-78
2022/04/20 06:39:40;;;;;;;25.23;14.15;;;;;;;5.76;63.15;94670.16;5012736;28;20033;-78
2022/04/20 06:42:07;;;;;;;23.90;13.32;;;;;;;5.77;63.78;94664.00;5010769;28;20144;-78
2022/04/20 06:44:33;;;;;;;14.75;11.63;;;;;;;5.81;63.18;94667.75;4995365;28;20034;-78
2022/04/20 06:46:59;;;;;;;19.52;11.60;;;;;;;5.66;62.64;94677.53;5011959;28;20034;-79
2022/04/20 06:49:25;;;;;;;17.13;12.00;;;;;;;5.69;63.86;94680.50;5011164;28;20042;-78
2022/04/20 07:00:25;;;;;;;15.77;12.32;;;;;;;5.80;63.90;94661.00;4932819;29;20471;-78
2022/04/20 07:03:00;;;;;;;17.75;13.50;;;;;;;5.86;63.58;94644.72;4918662;29;20028;-79
2022/04/20 07:05:26;;;;;;;37.92;25.25;;;;;;;6.01;64.59;94647.81;4971939;28;20116;-78
2022/04/20 07:07:52;;;;;;;49.60;29.70;;;;;;;6.12;63.28;94650.75;5013751;28;20045;-78
2022/04/20 07:10:17;;;;;;;40.53;27.10;;;;;;;6.25;63.51;94653.25;5010857;28;20029;-78
2022/04/20 07:12:42;;;;;;;37.55;25.13;;;;;;;6.35;62.47;94669.09;5012272;28;20427;-78
2022/04/20 07:15:08;;;;;;;53.90;31.70;;;;;;;6.37;62.82;94674.84;5012002;28;20026;-78
2022/04/20 07:17:33;;;;;;;96.85;51.90;;;;;;;6.39;63.17;94680.56;5010060;28;20503;-78
2022/04/20 07:20:00;;;;;;;99.85;52.70;;;;;;;6.40;64.15;94682.16;4994889;28;20033;-78
2022/04/20 07:22:26;;;;;;;63.58;38.03;;;;;;;6.40;63.93;94682.16;5000426;28;20026;-78
2022/04/20 07:24:51;;;;;;;53.63;35.47;;;;;;;6.45;64.10;94684.09;5027458;28;20512;-78
2022/04/20 07:27:17;;;;;;;54.55;33.90;;;;;;;6.42;64.09;94679.38;4999367;28;20029;-77
2022/04/20 07:29:43;;;;;;;58.05;36.17;;;;;;;6.41;64.24;94678.56;5021411;28;20034;-80
2022/04/20 07:32:08;;;;;;;61.45;33.30;;;;;;;6.50;62.49;94671.34;5013953;28;20100;-78
2022/04/20 07:34:34;;;;;;;50.33;31.58;;;;;;;6.57;62.98;94672.91;5010930;28;20377;-78
2022/04/20 07:36:59;;;;;;;51.17;31.00;;;;;;;6.47;63.09;94661.44;5010681;28;20402;-78
2022/04/20 07:39:25;;;;;;;37.58;27.38;;;;;;;6.56;63.02;94665.34;5010061;28;20026;-78
2022/04/20 07:41:50;;;;;;;41.42;27.75;;;;;;;6.56;62.52;94665.34;5011383;28;20026;-78
2022/04/20 07:44:16;;;;;;;40.83;27.70;;;;;;;6.61;62.88;94674.06;5013706;28;20478;-78
2022/04/20 07:46:41;;;;;;;37.80;26.65;;;;;;;6.66;62.35;94664.88;5013377;28;20033;-78
2022/04/20 07:51:50;;;;;;;54.70;33.83;;;;;;;6.83;62.35;94671.09;4998583;28;20408;-78
2022/04/20 07:54:16;;;;;;;59.67;38.00;;;;;;;6.84;61.85;94677.88;4997345;28;20482;-78
2022/04/20 07:56:42;;;;;;;67.20;40.53;;;;;;;6.87;61.87;94673.06;5026518;28;20018;-78
2022/04/20 07:59:07;;;;;;;73.63;43.08;;;;;;;6.87;61.81;94667.91;5018016;28;20026;-78
2022/04/20 08:01:32;;;;;;;63.47;37.42;;;;;;;6.83;61.91;94666.75;4993564;28;20029;-78
2022/04/20 08:03:58;;;;;;;65.05;42.75;;;;;;;6.69;62.31;94654.94;5012893;28;20034;-77
2022/04/20 08:06:24;;;;;;;81.85;48.70;;;;;;;6.68;62.12;94653.34;5023224;28;20045;-78
2022/04/20 08:08:49;;;;;;;93.32;56.88;;;;;;;6.63;61.99;94651.38;4996594;28;20038;-78
2022/04/20 08:11:15;;;;;;;80.65;52.08;;;;;;;6.62;62.35;94649.78;5013011;28;20030;-77
2022/04/20 08:16:24;;;;;;;80.32;52.80;;;;;;;6.75;61.84;94642.94;5013646;28;20068;-78
2022/04/20 08:18:49;;;;;;;85.60;54.42;;;;;;;6.70;61.38;94645.38;5012383;28;20509;-77
2022/04/20 08:21:15;;;;;;;72.10;45.03;;;;;;;6.85;61.00;94641.47;4996408;28;20037;-77
2022/04/20 08:23:40;;;;;;;74.45;47.45;;;;;;;6.87;61.35;94643.84;5014063;28;20089;-78
2022/04/20 08:26:06;;;;;;;62.17;40.20;;;;;;;6.92;60.41;94634.44;4997480;28;20501;-78
2022/04/20 08:28:32;;;;;;;76.18;48.25;;;;;;;6.93;60.32;94625.69;5012608;28;20065;-78
2022/04/20 08:30:58;;;;;;;74.55;50.25;;;;;;;7.05;59.95;94628.34;4997878;28;20092;-78
2022/04/20 08:33:23;;;;;;;68.00;46.47;;;;;;;7.15;60.20;94631.22;5013564;28;20464;-78
2022/04/20 08:35:49;;;;;;;59.55;41.60;;;;;;;7.12;60.75;94630.88;5014223;28;20030;-78
2022/04/20 08:38:14;;;;;;;62.65;39.90;;;;;;;7.14;60.70;94621.88;5013931;28;20025;-78
2022/04/20 08:40:40;;;;;;;50.47;31.23;;;;;;;7.18;59.09;94617.09;5013265;28;20034;-78
2022/04/20 08:43:05;;;;;;;44.97;31.52;;;;;;;7.05;59.57;94615.44;4996994;28;20097;-78
2022/04/20 08:45:33;;;;;;;50.78;34.10;;;;;;;6.92;60.45;94602.63;5011444;28;20044;-77
2022/04/20 08:47:59;;;;;;;53.35;35.90;;;;;;;6.81;61.16;94604.13;4993992;28;20030;-77
2022/04/20 08:50:25;;;;;;;45.50;29.48;;;;;;;6.62;60.95;94592.97;4993164;28;20048;-77
2022/04/20 08:52:52;;;;;;;44.85;30.75;;;;;;;6.58;61.41;94596.97;5008350;28;20109;-77
2022/04/20 08:55:18;;;;;;;46.63;28.67;;;;;;;6.67;62.39;94594.09;5007903;28;20026;-77
2022/04/20 08:57:45;;;;;;;38.65;26.77;;;;;;;6.65;62.44;94583.19;5012530;28;20417;-78
2022/04/20 09:00:22;;;;;;;41.25;27.08;;;;;;;6.77;62.23;94600.38;5013461;28;20042;-78
2022/04/20 09:02:52;;;;;;;40.13;27.08;;;;;;;6.83;62.63;94588.38;5013943;28;20517;-77
2022/04/20 09:05:18;;;;;;;41.28;26.63;;;;;;;6.77;63.29;94594.41;4998418;28;20041;-78
2022/04/20 09:07:44;;;;;;;45.58;26.92;;;;;;;6.84;63.16;94584.84;5022963;28;20038;-78
2022/04/20 09:10:09;;;;;;;40.85;25.65;;;;;;;6.98;63.18;94588.03;4997267;28;20022;-78
2022/04/20 09:12:39;;;;;;;34.47;24.80;;;;;;;7.10;62.66;94583.75;5014396;28;20401;-78
2022/04/20 09:15:05;;;;;;;38.42;24.60;;;;;;;7.14;62.70;94579.72;5013121;28;20100;-78
2022/04/20 09:17:32;;;;;;;35.50;24.27;;;;;;;7.23;62.55;94565.50;5014961;28;20109;-78
2022/04/20 09:19:58;;;;;;;30.20;21.25;;;;;;;7.32;62.19;94566.00;4997930;28;20022;-78
2022/04/20 09:22:24;;;;;;;31.60;22.80;;;;;;;7.39;61.94;94564.13;4997062;28;20034;-78
2022/04/20 09:25:05;;;;;;;29.88;21.58;;;;;;;7.54;61.99;94551.59;5014624;28;20523;-78
2022/04/20 09:27:31;;;;;;;25.23;18.38;;;;;;;7.48;61.70;94555.03;5015403;28;20038;-77
2022/04/20 09:29:57;;;;;;;23.20;16.90;;;;;;;7.37;62.04;94558.38;5011850;28;20034;-79
2022/04/20 09:32:30;;;;;;;22.42;16.10;;;;;;;7.38;62.36;94572.91;4994866;28;20053;-79
2022/04/20 09:34:58;;;;;;;23.40;15.52;;;;;;;7.47;62.22;94563.81;5011056;28;20088;-79
2022/04/20 09:37:23;;;;;;;18.85;12.73;;;;;;;7.49;62.19;94551.47;5013826;28;20030;-78
2022/04/20 09:39:51;;;;;;;17.88;14.05;;;;;;;7.39;61.66;94558.97;5013837;28;20030;-78
2022/04/20 09:42:19;;;;;;;23.33;14.38;;;;;;;7.52;62.04;94551.03;4997439;28;20068;-78
2022/04/20 09:45:04;;;;;;;19.00;13.88;;;;;;;7.46;61.80;94546.72;5013488;28;20030;-79
2022/04/20 09:50:24;;;;;;;22.90;14.52;;;;;;;7.07;62.95;94546.19;5023438;28;20114;-79
2022/04/20 09:53:01;;;;;;;19.40;14.98;;;;;;;6.93;64.12;94542.19;5021208;28;20045;-78
2022/04/20 09:55:31;;;;;;;23.75;14.82;;;;;;;7.10;63.54;94538.00;5008340;28;20072;-78
2022/04/20 09:58:10;;;;;;;18.38;14.80;;;;;;;7.19;63.54;94536.72;5025328;28;20037;-78
2022/04/20 10:00:45;;;;;;;20.88;14.88;;;;;;;7.19;63.46;94546.28;5015818;28;20025;-78
2022/04/20 10:03:11;;;;;;;23.27;14.98;;;;;;;7.29;62.92;94554.28;5011394;28;20029;-77
2022/04/20 10:05:39;;;;;;;19.67;13.55;;;;;;;7.50;62.77;94542.72;5020949;28;20041;-78
2022/04/20 10:08:05;;;;;;;18.85;13.85;;;;;;;7.74;61.53;94528.03;5017036;28;20038;-77
2022/04/20 10:10:31;;;;;;;18.52;13.93;;;;;;;7.89;61.95;94525.03;5008254;28;20587;-77
2022/04/20 10:12:57;;;;;;;18.92;14.38;;;;;;;8.13;61.91;94518.88;4992391;28;20044;-78
2022/04/20 10:18:12;;;;;;;32.28;15.68;;;;;;;8.45;61.32;94527.16;4994138;28;20124;-77
2022/04/20 10:20:38;;;;;;;28.85;20.45;;;;;;;8.42;62.51;94517.25;4991645;28;20429;-77
2022/04/20 10:23:05;;;;;;;36.95;22.50;;;;;;;8.42;62.54;94518.03;4990075;28;20042;-77
2022/04/20 10:25:30;;;;;;;32.83;19.45;;;;;;;8.48;62.29;94520.78;4990845;28;20040;-77
2022/04/20 10:28:08;;;;;;;24.17;18.00;;;;;;;8.54;62.94;94501.72;4991116;28;20034;-78
2022/04/20 10:31:01;;;;;;;25.92;15.90;;;;;;;8.54;62.79;94497.31;4991691;28;20963;-78
2022/04/20 10:33:26;;;;;;;29.02;15.75;;;;;;;8.54;63.02;94499.91;5011005;28;20030;-77
2022/04/20 10:35:58;;;;;;;23.95;14.75;;;;;;;8.29;62.44;94494.91;4991879;28;20422;-77
2022/04/20 10:38:25;;;;;;;24.45;14.30;;;;;;;8.35;62.05;94496.66;5007897;28;20502;-78
2022/04/20 10:41:09;;;;;;;14.43;12.63;;;;;;;8.28;63.54;94488.16;5009286;28;20125;-78
2022/04/20 10:43:38;;;;;;;22.92;13.18;;;;;;;8.19;63.41;94486.94;5011264;28;20125;-78
2022/04/20 10:46:16;;;;;;;9.38;8.38;;;;;;;8.05;61.45;94481.16;5010025;28;20121;-78
2022/04/20 10:48:45;;;;;;;12.07;8.95;;;;;;;8.16;61.70;94484.78;5009446;28;20876;-78
2022/04/20 10:51:11;;;;;;;9.32;8.43;;;;;;;8.05;62.21;94485.56;5017501;28;20496;-78
2022/04/20 10:53:37;;;;;;;7.97;7.05;;;;;;;7.80;62.14;94485.72;5007937;28;20485;-77
2022/04/20 10:56:02;;;;;;;8.30;7.47;;;;;;;7.62;62.91;94473.66;5011232;28;20055;-79
2022/04/20 10:58:28;;;;;;;8.43;7.60;;;;;;;7.61;63.54;94477.25;5008778;28;20536;-76
2022/04/20 11:01:10;;;;;;;10.10;9.07;;;;;;;7.72;63.93;94473.13;5005109;28;20034;-76
2022/04/20 11:03:51;;;;;;;11.97;8.20;;;;;;;7.82;64.00;94479.34;4990908;28;20096;-76
2022/04/20 11:06:17;;;;;;;34.35;23.50;;;;;;;7.99;64.16;94471.72;4991102;28;20324;-76
2022/04/20 11:08:42;;;;;;;16.80;12.35;;;;;;;8.11;64.13;94482.06;5008104;28;20049;-77
2022/04/20 11:20:16;;;;;;;40.55;31.65;;;;;;;8.11;64.55;94489.84;5004527;28;20111;-77
2022/04/20 11:22:45;;;;;;;70.53;48.22;;;;;;;8.10;64.17;94493.44;4997274;28;20029;-78
2022/04/20 11:25:11;;;;;;;101.18;70.38;;;;;;;8.02;64.43;94483.44;5011956;28;20497;-78
2022/04/20 11:27:36;;;;;;;69.70;49.33;;;;;;;8.01;64.45;94484.44;5012534;28;20084;-78
2022/04/20 11:30:05;;;;;;;50.15;36.10;;;;;;;7.88;64.95;94492.41;5013784;28;20038;-78
2022/04/20 11:32:31;;;;;;;56.53;35.53;;;;;;;7.80;64.80;94496.09;5029027;28;20026;-76
2022/04/20 11:35:05;;;;;;;58.70;38.60;;;;;;;7.71;65.23;94485.28;5012371;28;20056;-77
2022/04/20 11:37:30;;;;;;;63.88;40.78;;;;;;;7.68;64.82;94477.97;5011977;28;20092;-77
2022/04/20 11:39:56;;;;;;;53.13;36.10;;;;;;;7.57;65.46;94481.31;5011421;28;20030;-77
2022/04/20 11:42:21;;;;;;;55.00;37.20;;;;;;;7.52;65.57;94484.56;5014092;28;20071;-78
2022/04/20 11:44:47;;;;;;;55.88;38.58;;;;;;;7.55;65.33;94488.50;5007277;28;20088;-77
2022/04/20 11:47:17;;;;;;;80.85;49.92;;;;;;;7.46;65.42;94484.63;5018337;28;20033;-77
2022/04/20 11:49:56;;;;;;;79.45;51.38;;;;;;;7.44;65.31;94484.84;4995415;28;20034;-77
2022/04/20 11:52:21;;;;;;;68.63;45.55;;;;;;;7.44;65.36;94482.25;5011556;28;20038;-77
2022/04/20 11:54:47;;;;;;;66.03;44.90;;;;;;;7.39;65.91;94486.53;5009701;28;20034;-77
2022/04/20 11:57:15;;;;;;;60.55;40.47;;;;;;;7.34;64.60;94491.59;5010527;28;20053;-77
2022/04/20 11:59:44;;;;;;;61.08;40.47;;;;;;;7.23;64.98;94496.47;5012494;28;20046;-77
2022/04/20 12:02:13;;;;;;;66.90;41.90;;;;;;;7.12;65.26;94497.19;5010793;28;20173;-77
2022/04/20 12:04:39;;;;;;;63.95;39.97;;;;;;;7.07;64.68;94491.13;5010353;28;20109;-77
2022/04/20 12:07:04;;;;;;;67.13;42.05;;;;;;;6.97;64.32;94494.19;4994541;28;20121;-78
2022/04/20 12:09:35;;;;;;;71.65;46.38;;;;;;;6.94;64.04;94492.06;4994327;28;20041;-78
2022/04/20 12:12:02;;;;;;;76.80;45.03;;;;;;;6.88;62.71;94500.69;5010339;28;20026;-77
2022/04/20 12:14:30;;;;;;;55.22;35.30;;;;;;;6.74;62.98;94507.00;5009975;28;20083;-77